createdAt,value
2022-07-29T00:01:20.371Z,2.10
2022-07-29T00:03:49.005Z,4.32
2022-07-29T00:06:17.895Z,5.43
2022-07-29T00:08:49.012Z,5.07
2022-07-29T00:11:20.154Z,4.13
2022-07-29T00:13:51.202Z,3.95
2022-07-29T00:16:19.411Z,5.20
2022-07-29T00:18:47.510Z,3.65
2022-07-29T00:21:15.588Z,3.22
2022-07-29T00:23:43.577Z,3.05
2022-07-29T00:26:11.747Z,3.88
2022-07-29T00:28:39.764Z,3.08
2022-07-29T00:31:09.212Z,3.80
2022-07-29T00:33:37.495Z,4.97
2022-07-29T00:36:05.651Z,3.80
2022-07-29T00:38:33.706Z,8.05
2022-07-29T00:41:01.692Z,2.92
2022-07-29T00:43:29.617Z,2.72
2022-07-29T00:46:00.049Z,4.63
2022-07-29T00:48:28.299Z,4.57
2022-07-29T00:50:58.518Z,3.85
2022-07-29T00:53:26.778Z,4.78
2022-07-29T00:55:56.327Z,3.67
2022-07-29T00:58:24.873Z,5.60
2022-07-29T01:00:55.779Z,4.95
2022-07-29T01:03:23.947Z,4.18
2022-07-29T01:05:53.349Z,3.58
2022-07-29T01:08:22.569Z,4.85
2022-07-29T01:10:51.864Z,6.07
2022-07-29T01:13:20.250Z,4.53
2022-07-29T01:15:54.074Z,4.68
2022-07-29T01:18:47.888Z,6.35
2022-07-29T01:21:31.725Z,5.03
2022-07-29T01:24:27.574Z,6.45
2022-07-29T01:27:24.951Z,5.28
2022-07-29T01:30:03.840Z,6.55
2022-07-29T01:32:37.965Z,5.38
2022-07-29T01:35:33.105Z,4.90
2022-07-29T01:38:21.427Z,5.28
2022-07-29T01:40:56.464Z,5.00
2022-07-29T01:43:45.157Z,5.10
2022-07-29T01:46:27.806Z,4.90
2022-07-29T01:49:03.152Z,6.97
2022-07-29T01:51:55.932Z,6.65
2022-07-29T01:54:38.731Z,4.18
2022-07-29T01:57:14.795Z,4.50
2022-07-29T01:59:44.504Z,5.63
2022-07-29T02:02:15.016Z,4.72
2022-07-29T02:04:45.442Z,6.00
2022-07-29T02:07:17.824Z,4.05
2022-07-29T02:09:47.738Z,5.35
2022-07-29T02:12:21.980Z,4.25
2022-07-29T02:14:54.042Z,5.03
2022-07-29T02:17:43.879Z,7.13
2022-07-29T02:20:13.503Z,3.92
2022-07-29T02:22:44.147Z,7.45
2022-07-29T02:25:14.026Z,3.55
2022-07-29T02:27:44.082Z,4.65
2022-07-29T02:30:13.688Z,4.53
2022-07-29T02:32:44.215Z,4.72
2022-07-29T02:35:17.452Z,3.55
2022-07-29T02:38:07.034Z,7.80
2022-07-29T02:40:38.743Z,4.43
2022-07-29T02:43:08.988Z,4.88
2022-07-29T02:45:38.389Z,6.18
2022-07-29T02:48:16.442Z,5.10
2022-07-29T02:51:00.714Z,4.78
2022-07-29T02:53:31.066Z,7.75
2022-07-29T02:56:07.513Z,5.13
2022-07-29T02:58:41.618Z,5.72
2022-07-29T03:01:26.234Z,4.95
2022-07-29T03:03:56.030Z,4.88
2022-07-29T03:06:28.183Z,5.53
2022-07-29T03:09:13.054Z,6.32
2022-07-29T03:11:50.075Z,4.47
2022-07-29T03:14:21.402Z,3.45
2022-07-29T03:16:50.472Z,4.72
2022-07-29T03:19:21.050Z,4.82
2022-07-29T03:21:49.645Z,3.88
2022-07-29T03:24:27.644Z,3.58
2022-07-29T03:26:57.502Z,4.05
2022-07-29T03:29:33.230Z,4.55
2022-07-29T03:32:07.933Z,5.03
2022-07-29T03:34:38.090Z,4.20
2022-07-29T03:37:08.781Z,4.70
2022-07-29T03:39:42.437Z,6.20
2022-07-29T03:42:13.618Z,3.90
2022-07-29T03:44:45.143Z,3.90
2022-07-29T03:47:15.862Z,6.20
2022-07-29T03:49:45.760Z,4.30
2022-07-29T03:52:14.571Z,5.55
2022-07-29T03:54:42.701Z,4.63
2022-07-29T03:57:12.693Z,4.28
2022-07-29T03:59:41.681Z,5.00
2022-07-29T04:02:12.257Z,4.90
2022-07-29T04:04:40.445Z,4.25
2022-07-29T04:07:12.398Z,4.20
2022-07-29T04:09:40.534Z,5.22
2022-07-29T04:12:08.701Z,6.15
2022-07-29T04:14:37.238Z,4.88
2022-07-29T04:17:06.027Z,7.22
2022-07-29T04:19:37.321Z,6.40
2022-07-29T04:22:05.614Z,5.88
2022-07-29T04:24:33.746Z,6.95
2022-07-29T04:27:01.500Z,6.97
2022-07-29T04:29:29.719Z,5.90
2022-07-29T04:31:57.532Z,6.75
2022-07-29T04:34:27.949Z,4.63
2022-07-29T04:36:56.967Z,4.70
2022-07-29T04:39:25.760Z,4.65
2022-07-29T04:41:58.003Z,8.27
2022-07-29T04:44:30.526Z,8.27
2022-07-29T04:46:58.982Z,5.35
2022-07-29T04:49:27.483Z,6.82
2022-07-29T04:51:55.600Z,10.77
2022-07-29T04:54:23.685Z,6.60
2022-07-29T04:56:52.939Z,6.40
2022-07-29T04:59:21.777Z,6.38
2022-07-29T05:01:51.185Z,5.57
2022-07-29T05:04:20.305Z,7.10
2022-07-29T05:06:48.704Z,5.30
2022-07-29T05:09:16.547Z,6.55
2022-07-29T05:11:48.017Z,4.05
2022-07-29T05:14:16.410Z,4.90
2022-07-29T05:16:44.790Z,4.60
2022-07-29T05:19:14.569Z,7.88
2022-07-29T05:21:43.007Z,4.63
2022-07-29T05:24:11.251Z,12.02
2022-07-29T05:26:39.636Z,4.97
2022-07-29T05:29:08.114Z,5.70
2022-07-29T05:31:56.208Z,6.18
2022-07-29T05:34:24.855Z,6.25
2022-07-29T05:36:52.914Z,7.30
2022-07-29T05:39:21.422Z,7.80
2022-07-29T05:41:51.984Z,5.75
2022-07-29T05:44:20.394Z,6.68
2022-07-29T05:46:53.422Z,5.07
2022-07-29T05:49:27.025Z,5.00
2022-07-29T05:51:55.546Z,7.15
2022-07-29T05:54:26.715Z,7.00
2022-07-29T05:56:54.926Z,7.28
2022-07-29T05:59:27.042Z,7.28
2022-07-29T06:01:58.677Z,9.48
2022-07-29T06:04:27.495Z,7.88
2022-07-29T06:06:56.603Z,8.23
2022-07-29T06:09:25.000Z,7.57
2022-07-29T06:11:53.687Z,8.63
2022-07-29T06:14:24.580Z,8.18
2022-07-29T06:16:55.478Z,6.82
2022-07-29T06:19:23.431Z,8.50
2022-07-29T06:21:52.013Z,8.32
2022-07-29T06:24:20.387Z,5.35
2022-07-29T06:26:48.960Z,6.57
2022-07-29T06:29:19.677Z,7.68
2022-07-29T06:31:47.751Z,8.90
2022-07-29T06:34:16.624Z,6.20
2022-07-29T06:36:46.145Z,6.18
2022-07-29T06:39:14.448Z,5.63
2022-07-29T06:41:42.611Z,5.30
2022-07-29T06:44:11.535Z,6.72
2022-07-29T06:46:39.612Z,5.70
2022-07-29T06:49:07.888Z,7.22
2022-07-29T06:51:37.071Z,4.15
2022-07-29T06:54:06.650Z,5.32
2022-07-29T06:56:40.296Z,5.03
2022-07-29T06:59:10.305Z,6.03
2022-07-29T07:01:40.382Z,7.15
2022-07-29T07:04:12.420Z,6.05
2022-07-29T07:06:40.786Z,7.30
2022-07-29T07:09:09.099Z,6.38
2022-07-29T07:11:37.277Z,4.68
2022-07-29T07:14:05.716Z,9.25
2022-07-29T07:16:35.883Z,5.15
2022-07-29T07:19:04.143Z,6.32
2022-07-29T07:21:33.777Z,5.90
2022-07-29T07:24:02.065Z,6.60
2022-07-29T07:26:30.521Z,4.95
2022-07-29T07:29:01.403Z,5.32
2022-07-29T07:31:30.251Z,7.38
2022-07-29T07:34:01.720Z,7.30
2022-07-29T07:36:30.094Z,6.55
2022-07-29T07:38:59.157Z,7.22
2022-07-29T07:41:28.170Z,7.00
2022-07-29T07:44:04.105Z,6.10
2022-07-29T07:46:32.688Z,4.75
2022-07-29T07:49:01.190Z,5.57
2022-07-29T07:51:29.972Z,8.70
2022-07-29T07:54:01.930Z,7.38
2022-07-29T07:56:35.129Z,6.45
2022-07-29T07:59:06.080Z,5.80
2022-07-29T08:01:47.875Z,8.13
2022-07-29T08:04:28.248Z,6.18
2022-07-29T08:06:58.893Z,5.40
2022-07-29T08:09:30.286Z,5.40
2022-07-29T08:14:36.517Z,7.65
2022-07-29T08:17:05.089Z,7.43
2022-07-29T08:19:33.333Z,5.30
2022-07-29T08:22:09.206Z,4.30
2022-07-29T08:24:57.327Z,5.13
2022-07-29T08:27:43.094Z,7.18
2022-07-29T08:30:12.407Z,8.60
2022-07-29T08:32:53.798Z,7.15
2022-07-29T08:35:24.155Z,7.70
2022-07-29T08:37:53.678Z,6.43
2022-07-29T08:40:32.335Z,8.25
2022-07-29T08:43:06.554Z,5.63
2022-07-29T08:45:58.986Z,7.53
2022-07-29T08:48:27.198Z,6.32
2022-07-29T08:50:57.686Z,5.13
2022-07-29T08:53:28.109Z,5.78
2022-07-29T08:56:00.908Z,6.82
2022-07-29T08:58:32.382Z,8.80
2022-07-29T09:01:12.497Z,6.13
2022-07-29T09:03:42.605Z,6.97
2022-07-29T09:06:14.083Z,5.97
2022-07-29T09:08:42.505Z,8.50
2022-07-29T09:11:15.762Z,5.90
2022-07-29T09:13:44.058Z,6.90
2022-07-29T09:16:12.475Z,5.20
2022-07-29T09:18:43.405Z,10.10
2022-07-29T09:21:35.179Z,11.30
2022-07-29T09:24:15.186Z,6.60
2022-07-29T09:26:44.860Z,6.95
2022-07-29T09:29:17.878Z,5.50
2022-07-29T09:31:48.809Z,7.57
2022-07-29T09:34:23.079Z,6.13
2022-07-29T09:36:53.504Z,6.63
2022-07-29T09:39:36.958Z,6.18
2022-07-29T09:42:07.369Z,7.05
2022-07-29T09:44:50.830Z,7.50
2022-07-29T09:47:27.188Z,6.78
2022-07-29T09:50:00.689Z,5.88
2022-07-29T09:52:34.984Z,12.53
2022-07-29T09:55:17.938Z,11.25
2022-07-29T09:57:47.750Z,7.05
2022-07-29T10:00:19.020Z,10.52
2022-07-29T10:02:48.733Z,5.65
2022-07-29T10:05:21.457Z,7.13
2022-07-29T10:07:57.769Z,8.20
2022-07-29T10:10:27.488Z,6.97
2022-07-29T10:13:03.089Z,7.97
2022-07-29T10:15:41.979Z,6.55
2022-07-29T10:18:10.878Z,7.90
2022-07-29T10:20:39.709Z,8.20
2022-07-29T10:23:07.964Z,6.88
2022-07-29T10:25:39.685Z,6.45
2022-07-29T10:28:09.694Z,7.47
2022-07-29T10:30:51.460Z,6.80
2022-07-29T10:33:27.798Z,5.97
2022-07-29T10:36:47.588Z,7.50
2022-07-29T10:39:44.328Z,6.05
2022-07-29T10:42:33.519Z,7.55
2022-07-29T10:45:07.483Z,8.05
2022-07-29T10:47:35.824Z,5.28
2022-07-29T10:50:09.486Z,9.63
2022-07-29T10:52:59.611Z,5.93
2022-07-29T10:55:45.460Z,8.70
2022-07-29T10:58:26.660Z,7.38
2022-07-29T11:00:58.504Z,10.73
2022-07-29T11:03:50.801Z,5.85
2022-07-29T11:06:26.162Z,5.43
2022-07-29T11:09:37.460Z,7.88
2022-07-29T11:12:37.818Z,7.25
2022-07-29T11:15:22.665Z,10.45
2022-07-29T11:17:59.483Z,5.28
2022-07-29T11:20:43.618Z,6.28
2022-07-29T11:23:36.568Z,7.78
2022-07-29T11:26:23.216Z,10.27
2022-07-29T11:29:16.291Z,6.93
2022-07-29T11:31:52.624Z,8.93
2022-07-29T11:34:34.720Z,5.70
2022-07-29T11:37:15.106Z,7.00
2022-07-29T11:40:10.941Z,5.50
2022-07-29T11:42:41.994Z,7.00
2022-07-29T11:45:41.355Z,8.60
2022-07-29T11:48:29.821Z,8.00
2022-07-29T11:50:55.383Z,14.82
2022-07-29T11:53:29.090Z,7.95
2022-07-29T11:56:02.759Z,8.07
2022-07-29T11:58:32.698Z,6.20
2022-07-29T12:01:04.091Z,7.53
2022-07-29T12:03:37.206Z,6.05
2022-07-29T12:06:18.388Z,5.00
2022-07-29T12:08:49.282Z,6.05
2022-07-29T12:11:23.571Z,4.32
2022-07-29T12:16:25.414Z,9.20
2022-07-29T12:19:03.767Z,5.43
2022-07-29T12:21:52.252Z,4.68
2022-07-29T12:24:26.809Z,8.77
2022-07-29T12:27:00.205Z,5.53
2022-07-29T12:29:34.969Z,7.25
2022-07-29T12:32:05.273Z,6.70
2022-07-29T12:34:33.978Z,3.65
2022-07-29T12:37:03.073Z,5.35
2022-07-29T12:39:31.168Z,10.07
2022-07-29T12:42:13.974Z,5.72
2022-07-29T12:44:54.421Z,9.63
2022-07-29T12:47:22.985Z,6.80
2022-07-29T12:49:52.089Z,7.20
2022-07-29T12:52:29.827Z,5.97
2022-07-29T12:54:58.550Z,6.65
2022-07-29T12:57:27.708Z,6.63
2022-07-29T13:00:11.950Z,5.30
2022-07-29T13:02:41.807Z,5.55
2022-07-29T13:05:12.161Z,5.90
2022-07-29T13:08:29.548Z,10.27
2022-07-29T13:10:30.358Z,5.07
2022-07-29T13:13:12.047Z,7.60
2022-07-29T13:15:45.340Z,5.97
2022-07-29T13:18:39.178Z,5.07
2022-07-29T13:21:16.072Z,8.05
2022-07-29T13:23:44.566Z,8.77
2022-07-29T13:26:13.545Z,7.63
2022-07-29T13:28:44.002Z,7.80
2022-07-29T13:31:12.660Z,5.55
2022-07-29T13:33:40.794Z,7.78
2022-07-29T13:36:11.954Z,10.65
2022-07-29T13:38:39.941Z,7.43
2022-07-29T13:41:07.972Z,6.47
2022-07-29T13:43:36.352Z,7.28
2022-07-29T13:46:04.618Z,7.95
2022-07-29T13:48:32.561Z,4.60
2022-07-29T13:51:00.545Z,8.07
2022-07-29T13:53:29.649Z,5.18
2022-07-29T13:55:58.124Z,6.55
2022-07-29T13:58:26.099Z,5.00
2022-07-29T14:00:54.111Z,6.22
2022-07-29T14:03:22.043Z,6.63
2022-07-29T14:05:49.904Z,4.93
2022-07-29T14:08:18.094Z,6.97
2022-07-29T14:10:46.083Z,4.22
2022-07-29T14:13:25.244Z,6.28
2022-07-29T14:15:54.603Z,5.38
2022-07-29T14:18:25.588Z,5.82
2022-07-29T14:20:53.706Z,7.30
2022-07-29T14:23:22.143Z,5.22
2022-07-29T14:25:50.141Z,6.05
2022-07-29T14:28:18.424Z,5.13
2022-07-29T14:30:46.524Z,5.55
2022-07-29T14:33:14.942Z,7.80
2022-07-29T14:35:43.278Z,7.47
2022-07-29T14:38:11.428Z,7.15
2022-07-29T14:40:39.620Z,6.93
2022-07-29T14:43:07.692Z,7.78
2022-07-29T14:45:35.644Z,5.53
2022-07-29T14:48:03.703Z,7.38
2022-07-29T14:50:32.379Z,5.57
2022-07-29T14:53:03.203Z,7.80
2022-07-29T14:55:31.476Z,9.68
2022-07-29T14:58:08.659Z,3.97
2022-07-29T15:00:39.293Z,5.03
2022-07-29T15:03:11.341Z,7.65
2022-07-29T15:05:40.091Z,9.60
2022-07-29T15:08:09.262Z,5.20
2022-07-29T15:10:37.911Z,7.00
2022-07-29T15:13:06.191Z,4.25
2022-07-29T15:15:34.534Z,7.05
2022-07-29T15:18:02.688Z,4.50
2022-07-29T15:20:30.836Z,4.32
2022-07-29T15:22:59.150Z,5.03
2022-07-29T15:25:27.953Z,4.47
2022-07-29T15:28:01.244Z,4.38
2022-07-29T15:30:34.644Z,3.87
2022-07-29T15:33:04.510Z,5.82
2022-07-29T15:35:40.083Z,3.67
2022-07-29T15:38:09.060Z,5.38
2022-07-29T15:40:42.362Z,5.22
2022-07-29T15:43:10.404Z,12.82
2022-07-29T15:45:40.637Z,4.20
2022-07-29T15:48:10.088Z,3.00
2022-07-29T15:50:42.803Z,5.03
2022-07-29T15:53:15.316Z,6.68
2022-07-29T15:55:44.537Z,3.75
2022-07-29T15:58:12.900Z,3.72
2022-07-29T16:00:41.610Z,4.65
2022-07-29T16:03:15.264Z,4.88
2022-07-29T16:05:43.719Z,3.50
2022-07-29T16:08:11.859Z,3.08
2022-07-29T16:10:40.039Z,3.58
2022-07-29T16:13:11.189Z,4.43
2022-07-29T16:16:01.936Z,6.68
2022-07-29T16:18:30.944Z,6.38
2022-07-29T16:20:59.114Z,5.90
2022-07-29T16:23:27.159Z,3.72
2022-07-29T16:26:00.012Z,6.50
2022-07-29T16:28:30.700Z,6.45
2022-07-29T16:30:58.635Z,3.53
2022-07-29T16:33:27.062Z,8.13
2022-07-29T16:35:55.118Z,4.70
2022-07-29T16:38:25.241Z,4.70
2022-07-29T16:40:53.726Z,3.97
2022-07-29T16:43:23.992Z,6.65
2022-07-29T16:45:52.064Z,7.38
2022-07-29T16:48:20.307Z,3.28
2022-07-29T16:50:48.505Z,8.75
2022-07-29T16:53:16.447Z,6.90
2022-07-29T16:55:44.401Z,5.47
2022-07-29T16:58:12.544Z,5.95
2022-07-29T17:00:43.263Z,5.90
2022-07-29T17:03:11.305Z,4.78
2022-07-29T17:05:52.538Z,6.60
2022-07-29T17:08:23.011Z,8.45
2022-07-29T17:10:51.309Z,6.38
2022-07-29T17:13:22.775Z,4.10
2022-07-29T17:15:58.802Z,4.38
2022-07-29T17:18:38.015Z,4.60
2022-07-29T17:21:06.097Z,6.20
2022-07-29T17:23:37.382Z,3.90
2022-07-29T17:26:08.072Z,5.57
2022-07-29T17:28:36.473Z,5.82
2022-07-29T17:31:05.024Z,5.35
2022-07-29T17:33:33.519Z,5.88
2022-07-29T17:36:24.871Z,5.30
2022-07-29T17:39:01.126Z,10.48
2022-07-29T17:41:31.128Z,4.25
2022-07-29T17:43:59.434Z,6.13
2022-07-29T17:46:28.205Z,10.00
2022-07-29T17:48:57.723Z,3.70
2022-07-29T17:51:27.734Z,5.40
2022-07-29T17:53:59.733Z,4.10
2022-07-29T17:56:27.864Z,7.07
2022-07-29T17:58:56.440Z,7.22
2022-07-29T18:01:26.013Z,4.60
2022-07-29T18:03:57.182Z,6.47
2022-07-29T18:06:28.619Z,8.45
2022-07-29T18:08:59.003Z,4.40
2022-07-29T18:11:28.735Z,6.28
2022-07-29T18:14:02.547Z,8.80
2022-07-29T18:16:31.048Z,6.50
2022-07-29T18:19:02.892Z,4.72
2022-07-29T18:21:41.080Z,4.88
2022-07-29T18:24:29.486Z,4.32
2022-07-29T18:26:58.422Z,5.18
2022-07-29T18:29:29.151Z,8.30
2022-07-29T18:31:59.959Z,7.45
2022-07-29T18:34:32.144Z,7.53
2022-07-29T18:37:02.504Z,6.47
2022-07-29T18:39:33.679Z,6.00
2022-07-29T18:42:05.334Z,4.80
2022-07-29T18:44:33.896Z,5.15
2022-07-29T18:47:12.041Z,5.82
2022-07-29T18:49:42.996Z,7.82
2022-07-29T18:52:11.097Z,4.00
2022-07-29T18:54:40.168Z,6.22
2022-07-29T18:57:55.305Z,4.78
2022-07-29T18:59:57.589Z,7.43
2022-07-29T19:02:29.004Z,8.43
2022-07-29T19:04:59.645Z,5.28
2022-07-29T19:07:30.768Z,2.92
2022-07-29T19:09:58.749Z,4.57
2022-07-29T19:12:27.527Z,3.92
2022-07-29T19:14:58.941Z,6.93
2022-07-29T19:17:29.978Z,6.35
2022-07-29T19:19:58.548Z,4.20
2022-07-29T19:22:26.795Z,4.60
2022-07-29T19:24:54.870Z,4.97
2022-07-29T19:27:23.243Z,5.82
2022-07-29T19:29:51.251Z,6.70
2022-07-29T19:32:24.771Z,9.48
2022-07-29T19:35:11.854Z,4.40
2022-07-29T19:37:39.911Z,4.82
2022-07-29T19:40:09.934Z,7.95
2022-07-29T19:42:38.101Z,4.93
2022-07-29T19:45:15.168Z,4.68
2022-07-29T19:47:46.972Z,6.57
2022-07-29T19:50:15.900Z,9.43
2022-07-29T19:52:45.390Z,8.15
2022-07-29T19:55:16.859Z,4.55
2022-07-29T19:57:52.789Z,4.93
2022-07-29T20:00:24.396Z,6.68
2022-07-29T20:02:52.905Z,5.97
2022-07-29T20:05:27.937Z,7.20
2022-07-29T20:07:59.918Z,9.77
2022-07-29T20:10:30.262Z,6.43
2022-07-29T20:13:01.230Z,4.30
2022-07-29T20:15:29.663Z,8.10
2022-07-29T20:17:58.107Z,7.53
2022-07-29T20:20:27.628Z,6.35
2022-07-29T20:22:56.125Z,9.15
2022-07-29T20:25:24.499Z,7.72
2022-07-29T20:27:52.802Z,9.80
2022-07-29T20:30:24.887Z,8.48
2022-07-29T20:32:55.776Z,5.47
2022-07-29T20:35:23.706Z,9.82
2022-07-29T20:37:56.406Z,6.47
2022-07-29T20:40:26.841Z,7.63
2022-07-29T20:43:03.777Z,14.23
2022-07-29T20:45:31.947Z,10.73
2022-07-29T20:48:00.080Z,9.40
2022-07-29T20:50:29.790Z,9.30
2022-07-29T20:52:58.080Z,13.65
2022-07-29T20:55:26.476Z,7.55
2022-07-29T20:57:54.676Z,8.50
2022-07-29T21:00:23.083Z,11.88
2022-07-29T21:02:56.648Z,9.88
2022-07-29T21:05:25.157Z,19.60
2022-07-29T21:08:01.249Z,14.05
2022-07-29T21:10:29.909Z,11.93
2022-07-29T21:12:58.025Z,9.90
2022-07-29T21:15:27.865Z,10.07
2022-07-29T21:18:03.905Z,7.07
2022-07-29T21:20:32.130Z,13.02
2022-07-29T21:23:01.494Z,12.50
2022-07-29T21:25:34.578Z,10.75
2022-07-29T21:28:21.312Z,9.13
2022-07-29T21:30:50.129Z,12.00
2022-07-29T21:33:20.952Z,8.90
2022-07-29T21:38:40.584Z,15.68
2022-07-29T21:41:12.756Z,8.05
2022-07-29T21:43:42.389Z,12.27
2022-07-29T21:46:10.679Z,13.52
2022-07-29T21:48:44.387Z,13.45
2022-07-29T21:51:12.836Z,10.68
2022-07-29T21:53:41.561Z,8.75
2022-07-29T21:56:14.755Z,13.65
2022-07-29T21:58:43.408Z,10.07
2022-07-29T22:01:11.855Z,11.52
2022-07-29T22:03:42.992Z,9.85
2022-07-29T22:06:16.625Z,14.23
2022-07-29T22:08:47.806Z,16.23
2022-07-29T22:11:16.162Z,10.23
2022-07-29T22:13:46.881Z,11.95
2022-07-29T22:16:15.092Z,13.13
2022-07-29T22:18:49.804Z,13.32
2022-07-29T22:21:18.188Z,11.07
2022-07-29T22:23:46.370Z,10.98
2022-07-29T22:26:14.776Z,11.50
2022-07-29T22:28:42.698Z,12.70
2022-07-29T22:31:10.835Z,10.70
2022-07-29T22:33:41.813Z,12.02
2022-07-29T22:36:12.932Z,9.75
2022-07-29T22:38:40.942Z,11.48
2022-07-29T22:41:09.154Z,14.38
2022-07-29T22:43:40.127Z,9.25
2022-07-29T22:46:11.600Z,14.07
2022-07-29T22:48:40.180Z,10.45
2022-07-29T22:51:08.237Z,19.42
2022-07-29T22:53:37.639Z,9.27
2022-07-29T22:56:05.796Z,12.00
2022-07-29T22:58:37.468Z,12.95
2022-07-29T23:01:09.080Z,12.40
2022-07-29T23:03:39.327Z,14.43
2022-07-29T23:06:07.631Z,12.07
2022-07-29T23:08:35.936Z,12.80
2022-07-29T23:11:06.121Z,11.43
2022-07-29T23:13:34.817Z,15.60
2022-07-29T23:16:03.205Z,12.68
2022-07-29T23:18:33.728Z,17.67
2022-07-29T23:21:02.121Z,17.65
2022-07-29T23:23:32.503Z,17.50
2022-07-29T23:26:00.706Z,13.63
2022-07-29T23:28:28.900Z,12.40
2022-07-29T23:30:57.009Z,11.52
2022-07-29T23:33:25.237Z,13.18
2022-07-29T23:35:53.449Z,13.15
2022-07-29T23:38:21.866Z,15.50
2022-07-29T23:40:52.108Z,14.10
2022-07-29T23:43:20.145Z,15.60
2022-07-29T23:45:48.683Z,14.70
2022-07-29T23:48:17.218Z,12.23
2022-07-29T23:50:45.383Z,17.60
2022-07-29T23:53:13.357Z,13.65
2022-07-29T23:55:41.422Z,13.80
2022-07-29T23:58:09.299Z,16.27
